Tropical Cyclones
[Index]
Main Index Home Page Stock Weather Photos Extreme Storms Discussion Storm News and Storm Chasing Reports Tropical Cyclones / Hurricanes / Typhoons Weather Data and Links Wild Fires / Bushfires Weather Observation Techniques Weather Picture Catalogue Tornado Pictures and Reports Stock Video Footage and DVDs for sale
Season 1994-1995 Tropical Cyclone CHLOE Track Map
Season 1994-1995 Summaries: [BoM-AU] [JTWC-AU] [JTWC-SIO] [JTWC-SPAC] [JTWC-SH]
<<- Previous TC | BoM 1994-1995 Season | Next TC ->>

click for intensity scale information  Lat/long Grid: Show Hide

 Date Labels: Show Hide

Bureau of Meteorology Tropical Cyclone Data

Name: CHLOE
Number: 776 / 199495_05

03 Apr 1995 00:00 UTC to 08 Apr 1995 18:00 UTC

    date/time    lat    long    hPa   cat  kts
1995-04-03 00    9.1   128.1   1005         19          
1995-04-03 12    9.2   126.1   1005         19          
1995-04-04 00    9.5   123.7   1005         19          
1995-04-04 06    9.7   123.3   1005         19          
1995-04-04 12    9.9   122.9   1000         27          
1995-04-04 18   10.1   122.4   1000         27          
1995-04-05 00   10.2   122.0    995    1    35          
1995-04-05 03   10.3   121.6    990    1    41          
1995-04-05 06   10.4   121.2    985    2    47          
1995-04-05 09   10.5   120.9    980    2    54          
1995-04-05 12   10.6   120.9    975    2    60          
1995-04-05 15   10.9   121.1    970    3    66          
1995-04-05 18   11.1   121.3    965    3    70          
1995-04-05 21   11.4   121.5    960    3    76          
1995-04-06 00   11.6   121.7    955    4    80          
1995-04-06 03   11.9   121.8    955    4    80          
1995-04-06 06   12.2   121.9    955    4    80          
1995-04-06 09   12.5   122.1    955    4    80          
1995-04-06 12   12.9   122.3    955    4    80          
1995-04-06 15   13.3   122.4    945    4    89          
1995-04-06 18   13.5   122.7    935    4    97          
1995-04-06 21   13.8   123.0    925    5    105          
1995-04-07 00   14.1   123.2    920    5    107          
1995-04-07 03   14.4   123.3    920    5    107          
1995-04-07 06   14.6   123.3    920    5    107          
1995-04-07 09   14.8   123.4    920    5    107          
1995-04-07 12   15.0   123.6    925    5    105          
1995-04-07 15   15.2   123.8    930    4    101          
1995-04-07 18   15.5   123.8    935    4    97          
1995-04-07 21   15.7   124.0    940    4    93          
1995-04-08 00   16.0   124.1    945    4    89          
1995-04-08 03   16.3   124.2    955    4    80          
1995-04-08 06   16.6   124.2    965    3    70          
1995-04-08 09   16.9   124.1    980    2    54          
1995-04-08 12   17.1   124.0    990    1    41          
1995-04-08 15   17.3   123.8   1000         27          
1995-04-08 18   17.6   123.6   1000         27          
Winds are 10-min average.

Tropical cyclone tracks developed by Michael Bath using data from the Bureau of Meteorology and Google Maps.


[Australian Severe Weather index] [Copyright Notice] [Email Contacts] [Search This Site] [Privacy Policy]
Document: tropical_cyclone_chloe.htm Updated: 30 May 2013